createdAt,value
2022-09-21T00:01:15.071Z,102460.88
2022-09-21T00:03:43.692Z,102453.88
2022-09-21T00:06:13.272Z,102455.75
2022-09-21T00:08:41.256Z,102461.25
2022-09-21T00:11:13.099Z,102457.81
2022-09-21T00:13:42.199Z,102461.38
2022-09-21T00:16:11.646Z,102463.41
2022-09-21T00:18:40.142Z,102454.69
2022-09-21T00:21:09.162Z,102459.31
2022-09-21T00:23:37.564Z,102469.97
2022-09-21T00:26:07.183Z,102464.75
2022-09-21T00:28:35.222Z,102465.69
2022-09-21T00:31:04.478Z,102472.94
2022-09-21T00:33:34.075Z,102463.22
2022-09-21T00:36:06.092Z,102466.72
2022-09-21T00:38:34.107Z,102458.78
2022-09-21T00:41:02.184Z,102467.66
2022-09-21T00:43:30.042Z,102463.38
2022-09-21T00:46:01.547Z,102467.75
2022-09-21T00:48:29.863Z,102467.81
2022-09-21T00:51:03.025Z,102463.53
2022-09-21T00:53:32.100Z,102474.13
2022-09-21T00:56:00.907Z,102466.38
2022-09-21T00:58:30.370Z,102476.22
2022-09-21T01:01:00.491Z,102479.81
2022-09-21T01:03:29.726Z,102473.78
2022-09-21T01:05:58.964Z,102472.91
2022-09-21T01:08:27.741Z,102472.13
2022-09-21T01:11:21.198Z,102484.34
2022-09-21T01:13:57.091Z,102477.41
2022-09-21T01:16:28.234Z,102472.22
2022-09-21T01:19:01.101Z,102474.94
2022-09-21T01:21:32.521Z,102475.88
2022-09-21T01:24:42.092Z,102467.25
2022-09-21T01:27:27.862Z,102468.34
2022-09-21T01:29:59.927Z,102472.06
2022-09-21T01:32:29.564Z,102462.63
2022-09-21T01:35:01.328Z,102463.72
2022-09-21T01:37:34.277Z,102470.78
2022-09-21T01:40:05.010Z,102472.75
2022-09-21T01:42:34.522Z,102472.66
2022-09-21T01:45:07.169Z,102472.16
2022-09-21T01:47:35.414Z,102470.56
2022-09-21T01:50:04.468Z,102470.41
2022-09-21T01:52:35.632Z,102474.41
2022-09-21T01:55:08.014Z,102474.06
2022-09-21T01:57:40.177Z,102479.59
2022-09-21T02:00:10.904Z,102473.78
2022-09-21T02:02:42.805Z,102471.44
2022-09-21T02:05:11.605Z,102469.16
2022-09-21T02:07:40.431Z,102465.88
2022-09-21T02:10:10.112Z,102468.72
2022-09-21T02:12:38.332Z,102479.56
2022-09-21T02:15:06.564Z,102471.78
2022-09-21T02:17:49.836Z,102460.72
2022-09-21T02:20:20.939Z,102465.31
2022-09-21T02:23:02.437Z,102480.97
2022-09-21T02:25:38.479Z,102475.13
2022-09-21T02:28:09.614Z,102481.38
2022-09-21T02:30:38.194Z,102472.03
2022-09-21T02:33:12.576Z,102483.16
2022-09-21T02:35:41.173Z,102477.94
2022-09-21T02:38:09.921Z,102482.75
2022-09-21T02:40:38.278Z,102478.69
2022-09-21T02:43:07.191Z,102484.19
2022-09-21T02:45:36.215Z,102473.94
2022-09-21T02:48:04.727Z,102474.16
2022-09-21T02:50:35.211Z,102482.16
2022-09-21T02:53:02.721Z,102483.22
2022-09-21T02:55:30.225Z,102478.09
2022-09-21T02:57:57.694Z,102479.06
2022-09-21T03:00:25.158Z,102476.59
2022-09-21T03:02:52.795Z,102477.53
2022-09-21T03:05:20.288Z,102477.63
2022-09-21T03:07:49.186Z,102483.88
2022-09-21T03:10:17.431Z,102484.00
2022-09-21T03:12:46.103Z,102475.38
2022-09-21T03:15:14.547Z,102481.69
2022-09-21T03:17:42.083Z,102480.09
2022-09-21T03:20:10.405Z,102480.19
2022-09-21T03:22:37.840Z,102486.34
2022-09-21T03:25:09.186Z,102481.13
2022-09-21T03:27:36.726Z,102485.53
2022-09-21T03:30:04.544Z,102482.97
2022-09-21T03:32:32.024Z,102478.56
2022-09-21T03:34:59.431Z,102483.91
2022-09-21T03:37:26.975Z,102484.03
2022-09-21T03:39:54.423Z,102485.84
2022-09-21T03:42:23.321Z,102484.16
2022-09-21T03:44:50.797Z,102482.44
2022-09-21T03:47:18.245Z,102488.69
2022-09-21T03:49:45.699Z,102488.75
2022-09-21T03:52:13.304Z,102486.16
2022-09-21T03:54:40.813Z,102493.28
2022-09-21T03:57:08.922Z,102496.81
2022-09-21T03:59:37.770Z,102490.84
2022-09-21T04:02:05.411Z,102490.88
2022-09-21T04:04:32.815Z,102492.72
2022-09-21T04:07:00.397Z,102493.72
2022-09-21T04:09:27.842Z,102493.78
2022-09-21T04:11:55.292Z,102493.78
2022-09-21T04:14:23.358Z,102492.06
2022-09-21T04:16:52.556Z,102489.44
2022-09-21T04:19:21.040Z,102484.19
2022-09-21T04:21:51.255Z,102488.66
2022-09-21T04:24:19.289Z,102489.66
2022-09-21T04:26:46.939Z,102488.81
2022-09-21T04:29:14.517Z,102490.59
2022-09-21T04:31:42.285Z,102489.75
2022-09-21T04:34:11.687Z,102490.75
2022-09-21T04:36:39.151Z,102500.50
2022-09-21T04:39:07.162Z,102490.97
2022-09-21T04:41:34.810Z,102493.72
2022-09-21T04:44:02.524Z,102500.78
2022-09-21T04:46:30.062Z,102495.66
2022-09-21T04:48:57.719Z,102500.13
2022-09-21T04:51:26.589Z,102499.31
2022-09-21T04:53:54.205Z,102495.91
2022-09-21T04:56:21.760Z,102502.13
2022-09-21T04:58:49.224Z,102503.06
2022-09-21T05:01:16.733Z,102502.19
2022-09-21T05:03:44.297Z,102506.63
2022-09-21T05:06:13.443Z,102501.44
2022-09-21T05:08:59.795Z,102505.00
2022-09-21T05:11:27.260Z,102505.06
2022-09-21T05:13:54.835Z,102505.97
2022-09-21T05:16:22.382Z,102513.91
2022-09-21T05:18:49.869Z,102519.22
2022-09-21T05:21:17.383Z,102523.69
2022-09-21T05:23:46.262Z,102528.06
2022-09-21T05:26:13.768Z,102529.06
2022-09-21T05:28:41.529Z,102529.06
2022-09-21T05:31:17.968Z,102523.81
2022-09-21T05:33:48.066Z,102533.41
2022-09-21T05:36:18.985Z,102528.13
2022-09-21T05:38:48.337Z,102527.34
2022-09-21T05:41:15.972Z,102532.59
2022-09-21T05:43:43.702Z,102529.16
2022-09-21T05:46:12.847Z,102524.81
2022-09-21T05:48:41.964Z,102535.25
2022-09-21T05:51:11.672Z,102540.47
2022-09-21T05:53:44.922Z,102537.84
2022-09-21T05:56:15.500Z,102537.00
2022-09-21T05:58:44.585Z,102534.31
2022-09-21T06:01:19.709Z,102539.56
2022-09-21T06:03:49.451Z,102541.28
2022-09-21T06:06:17.175Z,102539.44
2022-09-21T06:08:44.642Z,102542.84
2022-09-21T06:11:12.233Z,102543.63
2022-09-21T06:13:41.957Z,102547.03
2022-09-21T06:16:09.519Z,102553.06
2022-09-21T06:18:38.123Z,102558.19
2022-09-21T06:21:05.920Z,102555.44
2022-09-21T06:23:33.566Z,102562.31
2022-09-21T06:26:01.052Z,102555.28
2022-09-21T06:28:29.681Z,102563.94
2022-09-21T06:30:58.835Z,102569.13
2022-09-21T06:33:26.561Z,102564.72
2022-09-21T06:35:55.034Z,102560.19
2022-09-21T06:38:22.666Z,102562.75
2022-09-21T06:40:50.452Z,102568.75
2022-09-21T06:43:18.024Z,102566.97
2022-09-21T06:45:45.613Z,102573.03
2022-09-21T06:48:14.476Z,102565.94
2022-09-21T06:50:42.087Z,102563.31
2022-09-21T06:53:09.604Z,102570.16
2022-09-21T06:55:37.114Z,102566.63
2022-09-21T06:58:05.216Z,102569.16
2022-09-21T07:00:32.905Z,102571.69
2022-09-21T07:03:00.584Z,102568.91
2022-09-21T07:05:29.510Z,102563.56
2022-09-21T07:08:00.447Z,102563.44
2022-09-21T07:10:28.304Z,102564.19
2022-09-21T07:12:55.826Z,102565.81
2022-09-21T07:15:23.653Z,102569.16
2022-09-21T07:17:53.200Z,102565.38
2022-09-21T07:20:33.902Z,102573.13
2022-09-21T07:23:01.756Z,102564.97
2022-09-21T07:25:29.304Z,102567.34
2022-09-21T07:27:56.734Z,102568.03
2022-09-21T07:30:24.295Z,102569.56
2022-09-21T07:32:51.796Z,102565.84
2022-09-21T07:35:20.172Z,102559.50
2022-09-21T07:37:48.995Z,102565.44
2022-09-21T07:40:16.643Z,102566.06
2022-09-21T07:42:44.854Z,102571.88
2022-09-21T07:45:12.635Z,102569.84
2022-09-21T07:47:40.149Z,102570.38
2022-09-21T07:50:08.131Z,102571.91
2022-09-21T07:52:35.779Z,102566.31
2022-09-21T07:55:04.901Z,102564.13
2022-09-21T07:57:49.738Z,102566.22
2022-09-21T08:00:17.355Z,102560.34
2022-09-21T08:02:47.632Z,102564.25
2022-09-21T08:05:15.486Z,102569.91
2022-09-21T08:07:42.969Z,102571.19
2022-09-21T08:10:12.546Z,102564.69
2022-09-21T08:12:40.086Z,102566.78
2022-09-21T08:15:16.493Z,102563.69
2022-09-21T08:17:52.995Z,102563.22
2022-09-21T08:20:20.663Z,102577.06
2022-09-21T08:22:48.235Z,102564.44
2022-09-21T08:25:17.176Z,102569.63
2022-09-21T08:27:44.718Z,102562.50
2022-09-21T08:30:13.656Z,102551.66
2022-09-21T08:32:50.918Z,102557.47
2022-09-21T08:35:19.176Z,102550.34
2022-09-21T08:37:46.681Z,102552.75
2022-09-21T08:40:16.954Z,102555.88
2022-09-21T08:42:50.823Z,102559.59
2022-09-21T08:45:18.823Z,102559.66
2022-09-21T08:47:46.803Z,102558.28
2022-09-21T08:50:21.229Z,102561.28
2022-09-21T08:52:48.702Z,102570.22
2022-09-21T08:55:17.987Z,102567.94
2022-09-21T08:57:47.089Z,102564.69
2022-09-21T09:00:15.384Z,102563.06
2022-09-21T09:02:47.157Z,102566.19
2022-09-21T09:05:23.728Z,102568.47
2022-09-21T09:07:59.941Z,102575.47
2022-09-21T09:10:32.748Z,102572.91
2022-09-21T09:13:04.308Z,102573.94
2022-09-21T09:15:39.231Z,102571.97
2022-09-21T09:18:09.458Z,102569.72
2022-09-21T09:20:37.789Z,102572.78
2022-09-21T09:23:07.021Z,102578.19
2022-09-21T09:25:36.127Z,102571.06
2022-09-21T09:28:07.111Z,102571.31
2022-09-21T09:30:34.999Z,102578.31
2022-09-21T09:33:03.526Z,102574.06
2022-09-21T09:35:33.180Z,102575.09
2022-09-21T09:38:01.617Z,102574.25
2022-09-21T09:40:40.983Z,102576.59
2022-09-21T09:43:10.112Z,102574.38
2022-09-21T09:45:45.440Z,102571.53
2022-09-21T09:48:30.806Z,102577.75
2022-09-21T09:50:58.666Z,102573.84
2022-09-21T09:53:26.604Z,102570.19
2022-09-21T09:55:54.542Z,102572.66
2022-09-21T09:58:23.952Z,102575.50
2022-09-21T10:00:52.417Z,102563.94
2022-09-21T10:03:20.475Z,102575.44
2022-09-21T10:05:48.048Z,102576.56
2022-09-21T10:08:29.183Z,102574.09
2022-09-21T10:10:56.704Z,102573.13
2022-09-21T10:13:26.980Z,102568.75
2022-09-21T10:15:55.589Z,102568.75
2022-09-21T10:18:23.759Z,102570.06
2022-09-21T10:20:58.270Z,102556.13
2022-09-21T10:23:25.964Z,102559.06
2022-09-21T10:25:54.676Z,102559.06
2022-09-21T10:28:22.303Z,102557.44
2022-09-21T10:30:51.477Z,102551.72
2022-09-21T10:33:20.435Z,102550.94
2022-09-21T10:35:51.507Z,102548.13
2022-09-21T10:38:22.747Z,102548.22
2022-09-21T10:40:50.562Z,102541.00
2022-09-21T10:43:25.102Z,102538.72
2022-09-21T10:45:55.316Z,102539.78
2022-09-21T10:48:23.554Z,102541.88
2022-09-21T10:50:51.855Z,102537.81
2022-09-21T10:53:21.324Z,102542.00
2022-09-21T10:56:04.902Z,102541.69
2022-09-21T10:58:39.134Z,102538.72
2022-09-21T11:01:15.960Z,102539.38
2022-09-21T11:03:46.287Z,102537.66
2022-09-21T11:06:15.925Z,102535.53
2022-09-21T11:08:45.404Z,102544.94
2022-09-21T11:11:18.981Z,102540.59
2022-09-21T11:13:47.729Z,102546.34
2022-09-21T11:16:17.781Z,102539.56
2022-09-21T11:18:47.389Z,102541.28
2022-09-21T11:21:17.332Z,102543.19
2022-09-21T11:23:48.124Z,102533.63
2022-09-21T11:28:17.741Z,102540.09
2022-09-21T11:31:11.844Z,102531.38
2022-09-21T11:33:53.504Z,102531.75
2022-09-21T11:36:29.502Z,102520.56
2022-09-21T11:39:01.279Z,102522.56
2022-09-21T11:41:54.967Z,102525.84
2022-09-21T11:44:45.280Z,102521.59
2022-09-21T11:47:34.449Z,102524.75
2022-09-21T11:50:33.365Z,102508.78
2022-09-21T11:53:20.484Z,102508.91
2022-09-21T11:56:12.882Z,102517.16
2022-09-21T11:58:45.133Z,102505.41
2022-09-21T12:01:24.628Z,102506.44
2022-09-21T12:04:04.485Z,102502.13
2022-09-21T12:06:44.314Z,102508.94
2022-09-21T12:09:34.395Z,102492.66
2022-09-21T12:12:06.889Z,102499.34
2022-09-21T12:17:16.332Z,102496.16
2022-09-21T12:19:48.386Z,102498.22
2022-09-21T12:22:19.519Z,102490.97
2022-09-21T12:24:49.034Z,102497.41
2022-09-21T12:27:24.462Z,102495.13
2022-09-21T12:29:54.737Z,102485.78
2022-09-21T12:32:27.024Z,102494.41
2022-09-21T12:34:57.111Z,102494.59
2022-09-21T12:37:28.055Z,102488.50
2022-09-21T12:40:02.231Z,102487.03
2022-09-21T12:42:34.508Z,102469.72
2022-09-21T12:45:05.051Z,102486.47
2022-09-21T12:47:42.772Z,102486.09
2022-09-21T12:50:19.366Z,102476.84
2022-09-21T12:52:47.236Z,102480.56
2022-09-21T12:55:26.084Z,102465.28
2022-09-21T12:58:15.211Z,102469.44
2022-09-21T13:00:58.690Z,102473.34
2022-09-21T13:03:32.100Z,102468.03
2022-09-21T13:06:23.877Z,102463.13
2022-09-21T13:08:51.903Z,102462.53
2022-09-21T13:11:21.653Z,102457.94
2022-09-21T13:13:52.848Z,102453.34
2022-09-21T13:16:26.295Z,102459.69
2022-09-21T13:18:59.053Z,102455.78
2022-09-21T13:21:29.812Z,102457.03
2022-09-21T13:23:58.934Z,102455.56
2022-09-21T13:26:33.968Z,102452.06
2022-09-21T13:29:07.787Z,102451.56
2022-09-21T13:31:57.498Z,102451.94
2022-09-21T13:34:32.618Z,102447.78
2022-09-21T13:37:36.328Z,102448.03
2022-09-21T13:40:40.190Z,102441.13
2022-09-21T13:46:08.572Z,102447.06
2022-09-21T13:48:37.338Z,102443.88
2022-09-21T13:51:10.776Z,102442.53
2022-09-21T13:53:41.985Z,102447.00
2022-09-21T13:56:21.455Z,102440.41
2022-09-21T13:58:52.786Z,102451.00
2022-09-21T14:01:45.028Z,102437.75
2022-09-21T14:04:20.842Z,102434.38
2022-09-21T14:09:22.828Z,102432.78
2022-09-21T14:11:57.493Z,102432.03
2022-09-21T14:14:28.771Z,102434.69
2022-09-21T14:16:58.644Z,102432.03
2022-09-21T14:22:32.992Z,102422.72
2022-09-21T14:25:27.277Z,102419.84
2022-09-21T14:27:55.537Z,102418.91
2022-09-21T14:30:25.066Z,102426.66
2022-09-21T14:32:55.920Z,102427.50
2022-09-21T14:35:28.152Z,102411.84
2022-09-21T14:38:01.612Z,102423.88
2022-09-21T14:40:33.674Z,102418.41
2022-09-21T14:43:03.437Z,102422.91
2022-09-21T14:45:42.468Z,102400.25
2022-09-21T14:48:13.034Z,102416.72
2022-09-21T14:50:44.857Z,102411.53
2022-09-21T14:53:39.168Z,102407.28
2022-09-21T14:56:22.444Z,102399.59
2022-09-21T14:59:01.187Z,102407.59
2022-09-21T15:01:41.321Z,102405.91
2022-09-21T15:04:27.619Z,102403.34
2022-09-21T15:07:21.014Z,102400.69
2022-09-21T15:10:32.930Z,102388.09
2022-09-21T15:13:07.100Z,102392.53
2022-09-21T15:15:38.358Z,102386.94
2022-09-21T15:18:17.872Z,102387.66
2022-09-21T15:20:46.243Z,102378.47
2022-09-21T15:23:19.289Z,102385.03
2022-09-21T15:25:58.836Z,102389.88
2022-09-21T15:28:28.298Z,102382.38
2022-09-21T15:30:58.416Z,102377.88
2022-09-21T15:34:07.772Z,102384.06
2022-09-21T15:36:38.425Z,102377.03
2022-09-21T15:39:06.685Z,102390.13
2022-09-21T15:41:43.058Z,102383.84
2022-09-21T15:44:15.880Z,102371.22
2022-09-21T15:46:46.922Z,102374.84
2022-09-21T15:49:21.966Z,102371.22
2022-09-21T15:53:55.783Z,102364.66
2022-09-21T15:56:25.778Z,102357.03
2022-09-21T15:59:05.070Z,102367.09
2022-09-21T16:01:32.778Z,102359.09
2022-09-21T16:04:05.437Z,102359.47
2022-09-21T16:06:37.887Z,102359.47
2022-09-21T16:09:34.370Z,102368.53
2022-09-21T16:12:02.462Z,102359.69
2022-09-21T16:14:47.963Z,102362.34
2022-09-21T16:17:24.730Z,102351.34
2022-09-21T16:20:19.503Z,102361.28
2022-09-21T16:22:49.016Z,102355.94
2022-09-21T16:25:34.436Z,102348.31
2022-09-21T16:28:03.816Z,102352.66
2022-09-21T16:30:51.119Z,102358.75
2022-09-21T16:33:41.017Z,102348.09
2022-09-21T16:36:40.616Z,102353.50
2022-09-21T16:39:15.524Z,102358.00
2022-09-21T16:41:48.477Z,102359.94
2022-09-21T16:44:20.777Z,102360.91
2022-09-21T16:46:53.179Z,102350.59
2022-09-21T16:49:24.805Z,102359.56
2022-09-21T16:51:55.805Z,102361.75
2022-09-21T16:54:25.167Z,102363.81
2022-09-21T16:56:55.533Z,102360.75
2022-09-21T16:59:23.362Z,102367.06
2022-09-21T17:01:56.070Z,102365.63
2022-09-21T17:04:25.971Z,102365.09
2022-09-21T17:06:55.080Z,102366.28
2022-09-21T17:09:29.152Z,102368.47
2022-09-21T17:12:01.590Z,102370.50
2022-09-21T17:14:35.225Z,102371.59
2022-09-21T17:17:05.691Z,102372.03
2022-09-21T17:19:33.608Z,102361.63
2022-09-21T17:22:01.286Z,102372.38
2022-09-21T17:24:49.365Z,102359.56
2022-09-21T17:27:19.684Z,102372.22
2022-09-21T17:29:49.891Z,102372.59
2022-09-21T17:32:47.776Z,102368.56
2022-09-21T17:35:18.559Z,102373.28
2022-09-21T17:37:46.290Z,102370.00
2022-09-21T17:40:15.405Z,102372.16
2022-09-21T17:42:46.454Z,102379.63
2022-09-21T17:45:19.092Z,102369.19
2022-09-21T17:47:50.244Z,102360.72
2022-09-21T17:50:24.190Z,102369.88
2022-09-21T17:53:10.057Z,102367.56
2022-09-21T17:55:39.165Z,102365.38
2022-09-21T17:58:14.960Z,102367.38
2022-09-21T18:00:50.372Z,102372.94
2022-09-21T18:03:22.450Z,102374.13
2022-09-21T18:05:52.744Z,102375.31
2022-09-21T18:08:20.797Z,102378.28
2022-09-21T18:10:56.876Z,102366.16
2022-09-21T18:13:29.502Z,102372.88
2022-09-21T18:16:06.323Z,102373.19
2022-09-21T18:18:46.778Z,102377.06
2022-09-21T18:21:18.245Z,102381.84
2022-09-21T18:23:59.535Z,102378.53
2022-09-21T18:26:27.520Z,102379.00
2022-09-21T18:28:58.225Z,102372.19
2022-09-21T18:31:44.939Z,102371.66
2022-09-21T18:34:29.186Z,102372.84
2022-09-21T18:37:00.370Z,102382.81
2022-09-21T18:39:35.540Z,102373.47
2022-09-21T18:42:12.832Z,102374.53
2022-09-21T18:44:44.254Z,102381.75
2022-09-21T18:47:16.275Z,102380.28
2022-09-21T18:49:51.285Z,102389.41
2022-09-21T18:52:32.161Z,102380.81
2022-09-21T18:55:00.101Z,102373.91
2022-09-21T18:57:32.271Z,102384.84
2022-09-21T19:00:00.496Z,102371.78
2022-09-21T19:02:29.219Z,102385.16
2022-09-21T19:04:59.182Z,102376.56
2022-09-21T19:07:30.769Z,102382.91
2022-09-21T19:10:06.876Z,102380.47
2022-09-21T19:12:48.264Z,102390.44
2022-09-21T19:15:42.295Z,102387.06
2022-09-21T19:18:20.106Z,102395.31
2022-09-21T19:21:00.060Z,102395.53
2022-09-21T19:23:45.259Z,102381.94
2022-09-21T19:26:16.442Z,102394.91
2022-09-21T19:28:55.500Z,102401.06
2022-09-21T19:31:23.423Z,102396.78
2022-09-21T19:33:51.799Z,102392.56
2022-09-21T19:36:21.309Z,102405.06
2022-09-21T19:38:49.766Z,102392.94
2022-09-21T19:41:32.310Z,102398.22
2022-09-21T19:44:07.333Z,102391.44
2022-09-21T19:46:39.322Z,102398.84
2022-09-21T19:49:13.896Z,102402.69
2022-09-21T19:51:46.812Z,102391.69
2022-09-21T19:54:33.832Z,102396.91
2022-09-21T19:57:19.692Z,102396.25
2022-09-21T19:59:48.336Z,102395.63
2022-09-21T20:02:18.483Z,102393.25
2022-09-21T20:04:50.750Z,102379.94
2022-09-21T20:07:27.555Z,102379.94
2022-09-21T20:10:06.515Z,102389.63
2022-09-21T20:12:38.438Z,102395.00
2022-09-21T20:15:12.914Z,102380.41
2022-09-21T20:17:45.982Z,102391.91
2022-09-21T20:20:17.942Z,102392.09
2022-09-21T20:22:47.379Z,102394.00
2022-09-21T20:25:21.748Z,102395.06
2022-09-21T20:27:51.492Z,102399.59
2022-09-21T20:30:22.230Z,102407.75
2022-09-21T20:32:52.346Z,102395.84
2022-09-21T20:35:21.957Z,102399.44
2022-09-21T20:37:51.763Z,102394.41
2022-09-21T20:40:20.535Z,102394.53
2022-09-21T20:42:48.330Z,102393.78
2022-09-21T20:45:16.235Z,102395.75
2022-09-21T20:47:44.001Z,102395.09
2022-09-21T20:50:13.449Z,102395.28
2022-09-21T20:52:41.878Z,102389.34
2022-09-21T20:55:13.412Z,102391.13
2022-09-21T20:57:41.497Z,102380.72
2022-09-21T21:00:11.222Z,102387.75
2022-09-21T21:02:38.973Z,102393.03
2022-09-21T21:05:07.986Z,102391.41
2022-09-21T21:07:36.539Z,102396.72
2022-09-21T21:10:04.713Z,102392.47
2022-09-21T21:12:33.893Z,102390.94
2022-09-21T21:15:01.626Z,102396.44
2022-09-21T21:17:29.364Z,102397.56
2022-09-21T21:19:57.230Z,102398.72
2022-09-21T21:22:24.949Z,102402.47
2022-09-21T21:24:52.805Z,102405.31
2022-09-21T21:27:22.819Z,102393.28
2022-09-21T21:29:52.869Z,102399.63
2022-09-21T21:32:23.097Z,102414.78
2022-09-21T21:34:51.216Z,102404.19
2022-09-21T21:37:19.880Z,102401.69
2022-09-21T21:39:47.708Z,102404.44
2022-09-21T21:42:15.730Z,102394.81
2022-09-21T21:44:43.726Z,102400.19
2022-09-21T21:47:38.166Z,102400.38
2022-09-21T21:50:00.760Z,102399.63
2022-09-21T21:52:28.714Z,102390.06
2022-09-21T21:54:56.371Z,102385.72
2022-09-21T21:57:24.167Z,102393.72
2022-09-21T21:59:52.002Z,102385.03
2022-09-21T22:02:21.255Z,102381.63
2022-09-21T22:04:49.064Z,102384.47
2022-09-21T22:07:16.725Z,102391.38
2022-09-21T22:09:44.652Z,102379.19
2022-09-21T22:12:12.547Z,102373.97
2022-09-21T22:14:40.411Z,102378.59
2022-09-21T22:17:08.151Z,102383.03
2022-09-21T22:19:37.932Z,102380.66
2022-09-21T22:22:06.114Z,102382.56
2022-09-21T22:24:33.782Z,102387.09
2022-09-21T22:27:01.425Z,102381.03
2022-09-21T22:29:29.141Z,102381.03
2022-09-21T22:31:56.791Z,102377.63
2022-09-21T22:34:24.490Z,102371.56
2022-09-21T22:36:53.866Z,102381.41
2022-09-21T22:39:21.562Z,102384.13
2022-09-21T22:41:49.246Z,102386.97
2022-09-21T22:44:17.255Z,102380.22
2022-09-21T22:46:44.948Z,102389.97
2022-09-21T22:49:12.635Z,102384.78
2022-09-21T22:51:40.351Z,102387.59
2022-09-21T22:54:09.438Z,102387.78
2022-09-21T22:56:37.233Z,102390.50
2022-09-21T22:59:06.060Z,102382.75
2022-09-21T23:01:35.218Z,102386.41
2022-09-21T23:04:05.055Z,102382.16
2022-09-21T23:06:35.086Z,102392.00
2022-09-21T23:09:05.161Z,102386.78
2022-09-21T23:11:35.531Z,102380.81
2022-09-21T23:14:03.592Z,102383.56
2022-09-21T23:16:31.650Z,102376.72
2022-09-21T23:18:59.625Z,102377.75
2022-09-21T23:21:29.396Z,102368.56
2022-09-21T23:23:59.729Z,102379.72
2022-09-21T23:26:28.502Z,102373.66
2022-09-21T23:28:59.316Z,102370.25
2022-09-21T23:31:27.777Z,102376.50
2022-09-21T23:33:57.217Z,102366.00
2022-09-21T23:36:29.594Z,102372.31
2022-09-21T23:38:57.658Z,102368.91
2022-09-21T23:41:27.129Z,102362.16
2022-09-21T23:43:55.386Z,102369.09
2022-09-21T23:46:26.227Z,102361.22
2022-09-21T23:48:54.090Z,102374.53
2022-09-21T23:51:22.065Z,102373.78
2022-09-21T23:53:49.878Z,102370.38
2022-09-21T23:56:19.333Z,102368.69
2022-09-21T23:58:48.082Z,102367.03
